sensor_id;sensor_type;location;lat;lon;timestamp;pressure;altitude;pressure_sealevel;temperature;humidity
61674;BME280;47573;43.832;5.974;2023-04-03T00:04:11;94896.94;;;24.31;56.03
61674;BME280;47573;43.832;5.974;2023-04-03T00:10:53;94893.44;;;24.36;55.32
61674;BME280;47573;43.832;5.974;2023-04-03T00:17:34;94879.22;;;24.34;54.63
61674;BME280;47573;43.832;5.974;2023-04-03T00:24:14;94874.88;;;24.33;55.16
61674;BME280;47573;43.832;5.974;2023-04-03T00:30:56;94861.75;;;24.30;55.53
61674;BME280;47573;43.832;5.974;2023-04-03T00:37:37;94867.19;;;24.30;55.62
61674;BME280;47573;43.832;5.974;2023-04-03T00:44:23;94860.84;;;24.19;56.00
61674;BME280;47573;43.832;5.974;2023-04-03T00:51:24;94858.38;;;24.18;55.46
61674;BME280;47573;43.832;5.974;2023-04-03T00:58:06;94854.25;;;24.15;55.66
61674;BME280;47573;43.832;5.974;2023-04-03T01:04:47;94855.50;;;24.03;56.10
61674;BME280;47573;43.832;5.974;2023-04-03T01:11:29;94855.59;;;24.13;55.75
61674;BME280;47573;43.832;5.974;2023-04-03T01:18:09;94857.66;;;24.01;56.16
61674;BME280;47573;43.832;5.974;2023-04-03T01:24:50;94838.56;;;24.01;55.59
61674;BME280;47573;43.832;5.974;2023-04-03T01:31:43;94836.88;;;23.94;55.86
61674;BME280;47573;43.832;5.974;2023-04-03T01:38:23;94834.94;;;23.90;55.81
61674;BME280;47573;43.832;5.974;2023-04-03T01:45:05;94832.97;;;23.85;56.10
61674;BME280;47573;43.832;5.974;2023-04-03T01:51:47;94830.22;;;23.80;56.17
61674;BME280;47573;43.832;5.974;2023-04-03T01:58:27;94820.97;;;23.81;56.42
61674;BME280;47573;43.832;5.974;2023-04-03T02:05:08;94813.31;;;23.78;56.16
61674;BME280;47573;43.832;5.974;2023-04-03T02:11:50;94821.72;;;23.77;56.29
61674;BME280;47573;43.832;5.974;2023-04-03T02:18:30;94817.66;;;23.74;56.38
61674;BME280;47573;43.832;5.974;2023-04-03T02:25:11;94815.97;;;23.68;56.26
61674;BME280;47573;43.832;5.974;2023-04-03T02:31:53;94818.63;;;23.63;56.37
61674;BME280;47573;43.832;5.974;2023-04-03T02:38:34;94805.06;;;23.68;56.06
61674;BME280;47573;43.832;5.974;2023-04-03T02:45:15;94815.06;;;23.63;56.48
61674;BME280;47573;43.832;5.974;2023-04-03T02:51:57;94808.72;;;23.52;56.42
61674;BME280;47573;43.832;5.974;2023-04-03T02:58:37;94812.06;;;23.59;56.59
61674;BME280;47573;43.832;5.974;2023-04-03T03:05:18;94810.72;;;23.62;55.90
61674;BME280;47573;43.832;5.974;2023-04-03T03:12:00;94808.75;;;23.57;56.15
61674;BME280;47573;43.832;5.974;2023-04-03T03:18:40;94794.53;;;23.50;56.40
61674;BME280;47573;43.832;5.974;2023-04-03T03:25:21;94800.03;;;23.55;56.17
61674;BME280;47573;43.832;5.974;2023-04-03T03:32:03;94795.28;;;23.46;55.94
61674;BME280;47573;43.832;5.974;2023-04-03T03:38:44;94799.94;;;23.45;56.22
61674;BME280;47573;43.832;5.974;2023-04-03T03:45:24;94792.00;;;23.44;56.03
61674;BME280;47573;43.832;5.974;2023-04-03T03:52:06;94792.81;;;23.39;56.33
61674;BME280;47573;43.832;5.974;2023-04-03T03:58:47;94785.75;;;23.43;55.88
61674;BME280;47573;43.832;5.974;2023-04-03T04:05:27;94776.69;;;23.38;56.03
61674;BME280;47573;43.832;5.974;2023-04-03T04:12:09;94773.09;;;23.32;56.10
61674;BME280;47573;43.832;5.974;2023-04-03T04:18:50;94785.13;;;23.36;55.93
61674;BME280;47573;43.832;5.974;2023-04-03T04:25:30;94778.06;;;23.35;55.96
61674;BME280;47573;43.832;5.974;2023-04-03T04:32:12;94782.84;;;23.28;56.37
61674;BME280;47573;43.832;5.974;2023-04-03T04:38:53;94787.75;;;23.31;56.03
61674;BME280;47573;43.832;5.974;2023-04-03T04:45:33;94781.72;;;23.24;56.39
61674;BME280;47573;43.832;5.974;2023-04-03T04:52:15;94790.44;;;23.26;56.02
61674;BME280;47573;43.832;5.974;2023-04-03T04:58:56;94787.47;;;23.28;55.96
61674;BME280;47573;43.832;5.974;2023-04-03T05:05:36;94785.50;;;23.23;55.95
61674;BME280;47573;43.832;5.974;2023-04-03T05:12:18;94788.69;;;23.15;56.14
61674;BME280;47573;43.832;5.974;2023-04-03T05:18:58;94794.66;;;23.12;56.32
61674;BME280;47573;43.832;5.974;2023-04-03T05:25:39;94793.78;;;23.06;56.53
61674;BME280;47573;43.832;5.974;2023-04-03T05:32:21;94790.56;;;23.09;56.26
61674;BME280;47573;43.832;5.974;2023-04-03T05:39:02;94795.81;;;23.16;56.67
61674;BME280;47573;43.832;5.974;2023-04-03T05:45:43;94802.38;;;23.20;56.70
61674;BME280;47573;43.832;5.974;2023-04-03T05:52:26;94802.69;;;23.24;56.60
61674;BME280;47573;43.832;5.974;2023-04-03T05:59:07;94800.72;;;23.19;56.84
61674;BME280;47573;43.832;5.974;2023-04-03T06:05:47;94804.84;;;23.22;56.58
61674;BME280;47573;43.832;5.974;2023-04-03T06:12:29;94807.28;;;23.23;56.41
61674;BME280;47573;43.832;5.974;2023-04-03T06:19:11;94805.19;;;23.30;56.36
61674;BME280;47573;43.832;5.974;2023-04-03T06:25:52;94820.34;;;23.21;55.96
61674;BME280;47573;43.832;5.974;2023-04-03T06:32:33;94819.56;;;23.21;56.08
61674;BME280;47573;43.832;5.974;2023-04-03T06:39:16;94832.13;;;23.27;55.85
61674;BME280;47573;43.832;5.974;2023-04-03T06:45:57;94836.00;;;23.31;55.48
61674;BME280;47573;43.832;5.974;2023-04-03T06:52:39;94842.13;;;23.21;55.94
61674;BME280;47573;43.832;5.974;2023-04-03T06:59:19;94842.78;;;23.28;55.74
61674;BME280;47573;43.832;5.974;2023-04-03T07:05:59;94828.59;;;23.26;56.16
61674;BME280;47573;43.832;5.974;2023-04-03T07:12:41;94833.09;;;23.37;54.92
61674;BME280;47573;43.832;5.974;2023-04-03T07:19:22;94835.28;;;23.40;54.71
61674;BME280;47573;43.832;5.974;2023-04-03T07:26:03;94838.59;;;23.42;55.13
61674;BME280;47573;43.832;5.974;2023-04-03T07:32:44;94839.72;;;23.46;55.04
61674;BME280;47573;43.832;5.974;2023-04-03T07:39:25;94841.97;;;23.54;54.51
61674;BME280;47573;43.832;5.974;2023-04-03T07:46:05;94846.16;;;23.62;54.35
61674;BME280;47573;43.832;5.974;2023-04-03T07:52:47;94842.31;;;23.63;54.61
61674;BME280;47573;43.832;5.974;2023-04-03T07:59:28;94830.16;;;23.70;53.88
61674;BME280;47573;43.832;5.974;2023-04-03T08:06:09;94834.81;;;23.75;53.84
61674;BME280;47573;43.832;5.974;2023-04-03T08:12:51;94840.31;;;23.80;53.76
61674;BME280;47573;43.832;5.974;2023-04-03T08:19:31;94845.47;;;23.76;53.92
61674;BME280;47573;43.832;5.974;2023-04-03T08:26:13;94838.34;;;23.75;52.59
61674;BME280;47573;43.832;5.974;2023-04-03T08:32:55;94845.84;;;23.90;53.67
61674;BME280;47573;43.832;5.974;2023-04-03T08:39:36;94839.06;;;23.92;53.75
61674;BME280;47573;43.832;5.974;2023-04-03T08:46:16;94847.25;;;23.97;53.41
61674;BME280;47573;43.832;5.974;2023-04-03T08:53:02;94846.28;;;24.04;53.14
61674;BME280;47573;43.832;5.974;2023-04-03T08:59:43;94828.88;;;24.10;53.38
61674;BME280;47573;43.832;5.974;2023-04-03T09:06:26;94830.50;;;24.11;52.93
61674;BME280;47573;43.832;5.974;2023-04-03T09:13:13;94818.03;;;24.20;53.00
61674;BME280;47573;43.832;5.974;2023-04-03T09:20:03;94819.66;;;24.21;53.27
61674;BME280;47573;43.832;5.974;2023-04-03T09:26:51;94818.59;;;24.27;53.00
61674;BME280;47573;43.832;5.974;2023-04-03T09:33:34;94815.63;;;24.33;52.53
61674;BME280;47573;43.832;5.974;2023-04-03T09:40:31;94804.47;;;24.35;52.78
61674;BME280;47573;43.832;5.974;2023-04-03T09:47:21;94793.84;;;24.38;52.89
61674;BME280;47573;43.832;5.974;2023-04-03T09:54:25;94797.44;;;24.44;52.67
61674;BME280;47573;43.832;5.974;2023-04-03T10:01:06;94794.69;;;24.44;52.76
61674;BME280;47573;43.832;5.974;2023-04-03T10:07:50;94789.28;;;24.49;52.68
61674;BME280;47573;43.832;5.974;2023-04-03T10:14:33;94772.34;;;24.52;52.87
61674;BME280;47573;43.832;5.974;2023-04-03T10:21:17;94772.41;;;24.62;52.46
61674;BME280;47573;43.832;5.974;2023-04-03T10:28:01;94763.13;;;24.63;52.54
61674;BME280;47573;43.832;5.974;2023-04-03T10:34:44;94756.06;;;24.67;52.51
61674;BME280;47573;43.832;5.974;2023-04-03T10:41:27;94751.41;;;24.72;51.64
61674;BME280;47573;43.832;5.974;2023-04-03T10:48:16;94748.41;;;24.69;51.12
61674;BME280;47573;43.832;5.974;2023-04-03T10:55:10;94728.19;;;24.65;45.97
61674;BME280;47573;43.832;5.974;2023-04-03T11:01:59;94725.56;;;24.80;46.58
61674;BME280;47573;43.832;5.974;2023-04-03T11:08:44;94722.84;;;24.95;43.00
61674;BME280;47573;43.832;5.974;2023-04-03T11:15:29;94709.22;;;25.00;41.03
61674;BME280;47573;43.832;5.974;2023-04-03T11:22:16;94700.47;;;24.98;38.13
61674;BME280;47573;43.832;5.974;2023-04-03T11:29:06;94690.13;;;25.05;39.36
61674;BME280;47573;43.832;5.974;2023-04-03T11:35:52;94670.41;;;24.93;39.93
61674;BME280;47573;43.832;5.974;2023-04-03T11:42:36;94674.25;;;24.92;40.94
61674;BME280;47573;43.832;5.974;2023-04-03T11:56:36;94653.50;;;24.96;41.88
61674;BME280;47573;43.832;5.974;2023-04-03T12:10:31;94637.38;;;25.00;42.96
61674;BME280;47573;43.832;5.974;2023-04-03T12:17:20;94624.00;;;24.98;43.07
61674;BME280;47573;43.832;5.974;2023-04-03T12:24:04;94626.19;;;24.96;43.54
61674;BME280;47573;43.832;5.974;2023-04-03T12:31:03;94613.59;;;24.95;43.93
61674;BME280;47573;43.832;5.974;2023-04-03T12:37:59;94573.22;;;24.97;44.28
61674;BME280;47573;43.832;5.974;2023-04-03T12:44:50;94569.91;;;24.95;44.37
61674;BME280;47573;43.832;5.974;2023-04-03T12:51:39;94545.63;;;24.99;45.01
61674;BME280;47573;43.832;5.974;2023-04-03T12:58:23;94552.44;;;24.96;45.14
61674;BME280;47573;43.832;5.974;2023-04-03T13:05:06;94543.16;;;24.92;45.39
61674;BME280;47573;43.832;5.974;2023-04-03T13:11:49;94534.41;;;25.00;45.54
61674;BME280;47573;43.832;5.974;2023-04-03T13:18:34;94533.34;;;24.96;45.86
61674;BME280;47573;43.832;5.974;2023-04-03T13:25:16;94524.06;;;24.97;45.88
61674;BME280;47573;43.832;5.974;2023-04-03T13:31:58;94498.66;;;24.97;46.24
61674;BME280;47573;43.832;5.974;2023-04-03T13:38:41;94498.63;;;25.12;46.50
61674;BME280;47573;43.832;5.974;2023-04-03T13:45:23;94483.88;;;25.13;46.54
61674;BME280;47573;43.832;5.974;2023-04-03T13:52:22;94474.28;;;25.20;47.47
61674;BME280;47573;43.832;5.974;2023-04-03T13:59:21;94470.44;;;25.31;47.22
61674;BME280;47573;43.832;5.974;2023-04-03T14:06:05;94467.13;;;25.39;47.98
61674;BME280;47573;43.832;5.974;2023-04-03T14:12:45;94465.50;;;25.38;48.07
61674;BME280;47573;43.832;5.974;2023-04-03T14:19:29;94454.31;;;25.45;48.31
61674;BME280;47573;43.832;5.974;2023-04-03T14:26:12;94450.72;;;25.49;48.58
61674;BME280;47573;43.832;5.974;2023-04-03T14:32:52;94441.97;;;25.47;48.96
61674;BME280;47573;43.832;5.974;2023-04-03T14:39:34;94435.94;;;25.56;49.32
61674;BME280;47573;43.832;5.974;2023-04-03T14:46:17;94422.25;;;25.56;49.09
61674;BME280;47573;43.832;5.974;2023-04-03T14:52:58;94403.66;;;25.58;49.73
61674;BME280;47573;43.832;5.974;2023-04-03T14:59:40;94400.38;;;25.66;49.63
61674;BME280;47573;43.832;5.974;2023-04-03T15:06:20;94390.53;;;25.60;49.81
61674;BME280;47573;43.832;5.974;2023-04-03T15:13:01;94388.84;;;25.74;49.92
61674;BME280;47573;43.832;5.974;2023-04-03T15:19:43;94383.91;;;25.71;49.94
61674;BME280;47573;43.832;5.974;2023-04-03T15:26:25;94377.59;;;25.75;50.04
61674;BME280;47573;43.832;5.974;2023-04-03T15:33:05;94378.97;;;25.73;50.71
61674;BME280;47573;43.832;5.974;2023-04-03T15:39:47;94372.44;;;25.69;50.35
61674;BME280;47573;43.832;5.974;2023-04-03T15:46:28;94365.50;;;25.86;50.90
61674;BME280;47573;43.832;5.974;2023-04-03T15:53:09;94367.34;;;25.96;50.54
61674;BME280;47573;43.832;5.974;2023-04-03T15:59:51;94372.00;;;25.95;50.14
61674;BME280;47573;43.832;5.974;2023-04-03T16:06:31;94370.09;;;25.91;50.33
61674;BME280;47573;43.832;5.974;2023-04-03T16:13:12;94362.19;;;25.89;50.92
61674;BME280;47573;43.832;5.974;2023-04-03T16:19:55;94366.88;;;25.84;50.83
61674;BME280;47573;43.832;5.974;2023-04-03T16:26:36;94357.03;;;25.83;51.00
61674;BME280;47573;43.832;5.974;2023-04-03T16:33:16;94366.84;;;25.89;50.91
61674;BME280;47573;43.832;5.974;2023-04-03T16:39:58;94364.47;;;25.77;51.64
61674;BME280;47573;43.832;5.974;2023-04-03T16:46:39;94366.44;;;25.72;51.96
61674;BME280;47573;43.832;5.974;2023-04-03T16:53:19;94374.66;;;25.67;51.92
61674;BME280;47573;43.832;5.974;2023-04-03T17:00:02;94386.13;;;25.69;51.42
61674;BME280;47573;43.832;5.974;2023-04-03T17:06:42;94404.19;;;25.65;51.88
61674;BME280;47573;43.832;5.974;2023-04-03T17:13:23;94403.94;;;25.56;52.43
61674;BME280;47573;43.832;5.974;2023-04-03T17:20:06;94405.84;;;25.61;52.34
61674;BME280;47573;43.832;5.974;2023-04-03T17:26:47;94423.38;;;25.49;52.55
61674;BME280;47573;43.832;5.974;2023-04-03T17:33:28;94427.22;;;25.48;51.67
61674;BME280;47573;43.832;5.974;2023-04-03T17:40:10;94428.84;;;25.49;51.83
61674;BME280;47573;43.832;5.974;2023-04-03T17:46:51;94443.63;;;25.48;52.23
61674;BME280;47573;43.832;5.974;2023-04-03T17:53:32;94443.63;;;25.48;51.63
61674;BME280;47573;43.832;5.974;2023-04-03T18:00:15;94451.28;;;25.46;51.71
61674;BME280;47573;43.832;5.974;2023-04-03T18:06:56;94461.94;;;25.43;51.89
61674;BME280;47573;43.832;5.974;2023-04-03T18:13:36;94460.03;;;25.43;51.51
61674;BME280;47573;43.832;5.974;2023-04-03T18:20:18;94483.00;;;25.42;51.00
61674;BME280;47573;43.832;5.974;2023-04-03T18:27:02;94490.69;;;25.15;52.23
61674;BME280;47573;43.832;5.974;2023-04-03T18:33:44;94492.34;;;25.06;53.15
61674;BME280;47573;43.832;5.974;2023-04-03T18:40:26;94506.00;;;25.06;52.65
61674;BME280;47573;43.832;5.974;2023-04-03T18:47:07;94509.28;;;25.08;52.80
61674;BME280;47573;43.832;5.974;2023-04-03T18:53:48;94523.19;;;25.17;52.89
61674;BME280;47573;43.832;5.974;2023-04-03T19:00:30;94519.09;;;25.19;52.48
61674;BME280;47573;43.832;5.974;2023-04-03T19:07:10;94519.91;;;25.30;52.49
61674;BME280;47573;43.832;5.974;2023-04-03T19:13:51;94518.00;;;25.30;52.37
61674;BME280;47573;43.832;5.974;2023-04-03T19:20:33;94499.41;;;25.27;52.47
61674;BME280;47573;43.832;5.974;2023-04-03T19:27:13;94505.97;;;25.26;52.11
61674;BME280;47573;43.832;5.974;2023-04-03T19:33:54;94511.41;;;25.26;52.28
61674;BME280;47573;43.832;5.974;2023-04-03T19:40:36;94507.06;;;25.20;53.03
61674;BME280;47573;43.832;5.974;2023-04-03T19:47:16;94509.25;;;25.18;53.28
61674;BME280;47573;43.832;5.974;2023-04-03T19:53:57;94516.66;;;25.18;53.53
61674;BME280;47573;43.832;5.974;2023-04-03T20:00:39;94522.41;;;25.11;54.17
61674;BME280;47573;43.832;5.974;2023-04-03T20:07:20;94522.41;;;25.11;54.18
61674;BME280;47573;43.832;5.974;2023-04-03T20:14:00;94519.13;;;25.04;54.64
61674;BME280;47573;43.832;5.974;2023-04-03T20:20:42;94518.28;;;25.04;54.31
61674;BME280;47573;43.832;5.974;2023-04-03T20:27:24;94511.75;;;25.00;54.14
61674;BME280;47573;43.832;5.974;2023-04-03T20:34:04;94535.50;;;24.94;54.40
61674;BME280;47573;43.832;5.974;2023-04-03T20:40:46;94528.97;;;24.90;53.70
61674;BME280;47573;43.832;5.974;2023-04-03T20:47:26;94530.59;;;24.91;54.27
61674;BME280;47573;43.832;5.974;2023-04-03T20:54:07;94525.94;;;24.92;54.13
61674;BME280;47573;43.832;5.974;2023-04-03T21:00:49;94526.22;;;24.85;54.50
61674;BME280;47573;43.832;5.974;2023-04-03T21:22:07;94534.44;;;24.80;54.52
61674;BME280;47573;43.832;5.974;2023-04-03T21:28:49;94525.16;;;24.76;54.54
61674;BME280;47573;43.832;5.974;2023-04-03T21:35:30;94519.16;;;24.84;54.11
61674;BME280;47573;43.832;5.974;2023-04-03T21:42:12;94518.31;;;24.84;54.09
61674;BME280;47573;43.832;5.974;2023-04-03T21:48:52;94509.84;;;24.75;54.29
61674;BME280;47573;43.832;5.974;2023-04-03T21:55:33;94514.19;;;24.71;54.10
61674;BME280;47573;43.832;5.974;2023-04-03T22:02:15;94523.19;;;24.66;54.42
61674;BME280;47573;43.832;5.974;2023-04-03T22:08:55;94526.19;;;24.65;54.48
61674;BME280;47573;43.832;5.974;2023-04-03T22:15:36;94516.38;;;24.59;54.27
61674;BME280;47573;43.832;5.974;2023-04-03T22:22:18;94520.75;;;24.55;54.54
61674;BME280;47573;43.832;5.974;2023-04-03T22:28:58;94523.44;;;24.50;54.38
61674;BME280;47573;43.832;5.974;2023-04-03T22:35:44;94520.19;;;24.48;54.30
61674;BME280;47573;43.832;5.974;2023-04-03T22:42:26;94520.16;;;24.38;54.48
61674;BME280;47573;43.832;5.974;2023-04-03T22:49:06;94514.72;;;24.38;54.46
61674;BME280;47573;43.832;5.974;2023-04-03T22:55:53;94513.09;;;24.37;54.31
61674;BME280;47573;43.832;5.974;2023-04-03T23:02:35;94501.34;;;24.31;54.64
61674;BME280;47573;43.832;5.974;2023-04-03T23:09:15;94496.69;;;24.32;54.41
61674;BME280;47573;43.832;5.974;2023-04-03T23:15:57;94495.06;;;24.31;54.61
61674;BME280;47573;43.832;5.974;2023-04-03T23:22:41;94496.16;;;24.30;54.18
61674;BME280;47573;43.832;5.974;2023-04-03T23:29:21;94495.59;;;24.23;54.62
61674;BME280;47573;43.832;5.974;2023-04-03T23:36:05;94503.53;;;24.24;54.30
61674;BME280;47573;43.832;5.974;2023-04-03T23:42:47;94512.78;;;24.23;54.13
61674;BME280;47573;43.832;5.974;2023-04-03T23:49:28;94525.59;;;24.18;54.29
61674;BME280;47573;43.832;5.974;2023-04-03T23:56:08;94513.03;;;24.17;54.50
